Vores vejrinfo findes også på:

UK Metoffice

European Weather Network

Weather Underground



Stationer ""tæt på"" METAR Rapporter

   
EKEB - Esbjerg, Denmark
Afstand fra denne vejrstation: NNV 29 km
Opdateret: 07-07-2020 17:50
Mest overskyet  
Mest overskyet  
   Vind fra: Vest 6.7 m/s
Vind fra: Vest 6.7 m/s
Temperatur: 14°C
Dugpunkt: 9°C
Luftfugtighed: 72%
Barometer: 1013 hPa
Skyer: Mest overskyet
Sigtbarhed: More than 10 km
Sky detaljer: Delvis overskyet 2600 ft,
Mest overskyet 5400 ft
EKEB 071550Z AUTO 28013KT 9999 SCT026/// BKN054/// 14/09 Q1013
EKSP - Skrydstrup(Dan-A, Denmark
Afstand fra denne vejrstation: Ø 35 km
Opdateret: 07-07-2020 18:20
Mest overskyet  
Mest overskyet  
   Vind fra: Vest 8.7 m/s
Vind fra: Vest 8.7 m/s
Temperatur: 14°C
Dugpunkt: 9°C
Luftfugtighed: 72%
Barometer: 1013 hPa
Skyer: Mest overskyet
Sigtbarhed: More than 10 km
Sky detaljer: Få skyer 2500 ft,
Delvis overskyet 2600 ft,
Mest overskyet 8100 ft
EKSP 071620Z 28017KT 9999 FEW025CB SCT026TCU BKN081 14/09 Q1013
EKBI - Billund Airport, Denmark
Afstand fra denne vejrstation: NNØ 56 km
Opdateret: 07-07-2020 18:20
Mest overskyet  
Mest overskyet  
   Vind fra: Vest 7.2 m/s
Vind fra: Vest 7.2 m/s
Temperatur: 13°C
Dugpunkt: 7°C
Luftfugtighed: 67%
Barometer: 1012 hPa
Skyer: Mest overskyet
Sigtbarhed: More than 10 km
Sky detaljer: Mest overskyet 3200 ft
EKBI 071620Z AUTO 27014KT 9999 BKN032/// 13/07 Q1012
EKSB - Sonderborg Airpo, Denmark
Afstand fra denne vejrstation: ØSØ 76 km
Opdateret: 07-07-2020 18:20
Delvis overskyet  
Delvis overskyet  
   Vind fra: Vest 5.1 m/s
Vind fra: Vest 5.1 m/s
Temperatur: 15°C
Dugpunkt: 8°C
Luftfugtighed: 63%
Barometer: 1013 hPa
Skyer: Delvis overskyet
Sigtbarhed: 10 km
Sky detaljer: Få skyer 2900 ft,
Delvis overskyet 7000 ft
EKSB 071620Z AUTO 28010KT 250V310 9999NDV FEW029/// SCT070/// 15/08 Q1013
EKVD - Vamdrup (aut/man), Denmark
Afstand fra denne vejrstation: ØNØ 41 km
Opdateret: 07-07-2020 18:20
  
  
   Vind fra: Vest 6.2 m/s
Vind fra: Vest 6.2 m/s
Temperatur: 14°C
Dugpunkt: 9°C
Luftfugtighed: 72%
Barometer: 1012 hPa
EKVD 071620Z AUTO 28012KT 260V320 //// ///////// 14/09 Q1012
EDXW - Westerland/Sylt, Germany
Afstand fra denne vejrstation: SSV 47 km
Opdateret: 07-07-2020 18:20
Få skyer  
Få skyer  
   Vind fra: VNV 8.2 m/s
Vind fra: VNV 8.2 m/s
Temperatur: 14°C
Dugpunkt: 9°C
Luftfugtighed: 72%
Barometer: 1014 hPa
Skyer: Få skyer
Sigtbarhed: More than 10 km
Sky detaljer: Få skyer 2900 ft
EDXW 071620Z 29016KT 9999 FEW029 14/09 Q1014

Original script by  Saratoga-weather.org Adapted for the template by  Weerstation Leuven

Der anvendes følgende:

Vejrstation
Davis VP2

Vejrprogram
Meteohub

Server
RaspberryPI 3 model B

Davis VP2

Meteohub

RaspberryPI 3 model B